Time;durP1;ratioP1;P1;durP2;ratioP2;P2;SDS_P1;SDS_P2;PMS_P1;PMS_P2;Temp;Humidity;BMP_temperature;BMP_pressure;BME280_temperature;BME280_humidity;BME280_pressure;Samples;Min_cycle;Max_cycle;Signal;HPM_P1;HPM_P2
2022/01/01 00:00:46;;;;;;;24.23;13.20;;;12.10;99.90;;;;;;4940983;29;20510;-95
2022/01/01 00:03:12;;;;;;;18.40;11.75;;;12.20;99.90;;;;;;4942674;28;20280;-93
2022/01/01 00:05:39;;;;;;;18.23;12.13;;;12.20;99.90;;;;;;4956535;28;20224;-94
2022/01/01 00:08:06;;;;;;;21.15;12.02;;;12.20;99.90;;;;;;4940629;29;20228;-94
2022/01/01 00:10:32;;;;;;;21.02;11.55;;;12.10;99.90;;;;;;4940631;29;20189;-94
2022/01/01 00:12:58;;;;;;;19.80;11.63;;;12.20;99.90;;;;;;4940724;29;20189;-93
2022/01/01 00:15:28;;;;;;;16.65;11.32;;;12.10;99.90;;;;;;4940657;29;20195;-94
2022/01/01 00:17:53;;;;;;;20.80;12.05;;;12.20;99.90;;;;;;4940618;29;20280;-93
2022/01/01 00:20:19;;;;;;;20.10;11.40;;;12.20;99.90;;;;;;4940468;29;20271;-94
2022/01/01 00:23:03;;;;;;;22.08;12.32;;;12.20;99.90;;;;;;4940589;29;20197;-93
2022/01/01 00:25:32;;;;;;;19.75;12.73;;;12.10;99.90;;;;;;4956583;29;20700;-94
2022/01/01 00:27:57;;;;;;;21.38;12.70;;;12.20;99.90;;;;;;4940536;29;20577;-93
2022/01/01 00:30:23;;;;;;;29.38;13.45;;;12.20;99.90;;;;;;4940559;29;20190;-93
2022/01/01 00:32:49;;;;;;;24.67;13.57;;;12.20;99.90;;;;;;4940438;29;20185;-93
2022/01/01 00:35:18;;;;;;;24.08;14.30;;;12.10;99.90;;;;;;4952991;28;20283;-93
2022/01/01 00:37:44;;;;;;;28.45;15.63;;;12.10;99.90;;;;;;4959245;28;20239;-93
2022/01/01 00:40:10;;;;;;;23.02;14.63;;;12.10;99.90;;;;;;4959454;28;20616;-93
2022/01/01 00:42:36;;;;;;;27.83;15.07;;;12.20;99.90;;;;;;4959322;28;20196;-93
2022/01/01 00:45:09;;;;;;;29.50;15.13;;;12.10;99.90;;;;;;4959318;28;20189;-93
2022/01/01 00:47:35;;;;;;;23.80;14.95;;;12.00;99.90;;;;;;4959319;28;20216;-93
2022/01/01 00:50:00;;;;;;;26.95;14.82;;;12.20;99.90;;;;;;4958935;28;20263;-94
2022/01/01 00:52:26;;;;;;;24.48;16.63;;;12.10;99.90;;;;;;4959429;28;20227;-93
2022/01/01 00:54:52;;;;;;;26.42;16.10;;;12.00;99.90;;;;;;4959286;28;20628;-93
2022/01/01 00:57:18;;;;;;;26.50;15.57;;;12.00;99.90;;;;;;4959119;28;20196;-93
2022/01/01 00:59:43;;;;;;;27.42;15.77;;;12.00;99.90;;;;;;4958965;28;20192;-94
2022/01/01 01:02:09;;;;;;;25.20;15.02;;;12.00;99.90;;;;;;4959047;28;20628;-94
2022/01/01 01:04:35;;;;;;;23.65;14.77;;;12.10;99.90;;;;;;4958774;28;20194;-94
2022/01/01 01:07:12;;;;;;;24.55;14.63;;;12.20;99.90;;;;;;4958551;28;20228;-94
2022/01/01 01:09:38;;;;;;;26.27;14.35;;;12.10;99.90;;;;;;4959445;28;20187;-94
2022/01/01 01:12:04;;;;;;;24.00;14.57;;;12.20;99.90;;;;;;4959304;28;20196;-96
2022/01/01 01:14:39;;;;;;;27.27;14.32;;;12.20;99.90;;;;;;4959440;28;20331;-95
2022/01/01 01:17:17;;;;;;;22.83;14.45;;;12.20;99.90;;;;;;4959112;28;20273;-93
2022/01/01 01:19:44;;;;;;;21.23;13.65;;;12.20;99.90;;;;;;4958891;28;20188;-93
2022/01/01 01:22:09;;;;;;;28.38;14.48;;;12.20;99.90;;;;;;4959012;28;20184;-93
2022/01/01 01:24:35;;;;;;;24.33;14.05;;;12.10;99.90;;;;;;4959138;28;20195;-94
2022/01/01 01:27:07;;;;;;;21.95;13.18;;;12.10;99.90;;;;;;4958835;28;20228;-93
2022/01/01 01:29:37;;;;;;;21.95;13.38;;;12.10;99.90;;;;;;4958990;28;20224;-94
2022/01/01 01:32:03;;;;;;;19.50;13.07;;;12.20;99.90;;;;;;4959082;28;20185;-94
2022/01/01 01:34:29;;;;;;;21.30;12.80;;;12.10;99.90;;;;;;4958616;28;20655;-94
2022/01/01 01:36:58;;;;;;;21.38;12.73;;;12.10;99.90;;;;;;4950788;28;20197;-93
2022/01/01 01:39:24;;;;;;;19.40;12.35;;;12.20;99.90;;;;;;4940276;29;20237;-93
2022/01/01 01:41:52;;;;;;;21.83;13.45;;;12.20;99.90;;;;;;4940043;29;20189;-93
2022/01/01 01:44:24;;;;;;;25.55;12.88;;;12.10;99.90;;;;;;4939732;29;20217;-93
2022/01/01 01:47:13;;;;;;;27.60;13.55;;;12.00;99.90;;;;;;4939364;29;20220;-93
2022/01/01 01:49:39;;;;;;;23.45;12.60;;;12.00;99.90;;;;;;4941567;29;20232;-93
2022/01/01 01:52:06;;;;;;;20.35;12.85;;;12.00;99.90;;;;;;4943149;29;20193;-94
2022/01/01 01:54:33;;;;;;;19.95;12.43;;;12.10;99.90;;;;;;4943206;29;20597;-93
2022/01/01 01:57:22;;;;;;;25.58;13.30;;;12.10;99.90;;;;;;4942945;29;20285;-93
2022/01/01 01:59:52;;;;;;;21.33;12.20;;;12.10;99.90;;;;;;4943183;29;20196;-93
2022/01/01 02:02:18;;;;;;;17.02;11.38;;;12.10;99.90;;;;;;4943283;29;20249;-93
2022/01/01 02:04:44;;;;;;;23.10;12.63;;;12.10;99.90;;;;;;4942987;29;20185;-93
2022/01/01 02:07:15;;;;;;;22.42;12.18;;;12.10;99.90;;;;;;4952702;28;20232;-93
2022/01/01 02:09:40;;;;;;;22.13;12.05;;;12.10;99.90;;;;;;4962206;28;20266;-92
2022/01/01 02:12:08;;;;;;;16.83;10.73;;;12.20;99.90;;;;;;4962364;28;20193;-94
2022/01/01 02:17:32;;;;;;;23.08;12.50;;;12.10;99.90;;;;;;4979473;28;20176;-93
2022/01/01 02:20:05;;;;;;;21.75;12.18;;;12.00;99.90;;;;;;4961686;28;20185;-93
2022/01/01 02:22:45;;;;;;;23.42;12.40;;;12.00;99.90;;;;;;4961930;28;20268;-93
2022/01/01 02:25:11;;;;;;;21.70;12.48;;;12.00;99.90;;;;;;4961807;28;20181;-94
2022/01/01 02:28:00;;;;;;;22.73;12.27;;;11.90;99.90;;;;;;4961654;28;20193;-93
2022/01/01 02:30:28;;;;;;;24.08;12.68;;;12.00;99.90;;;;;;4961769;28;20275;-92
2022/01/01 02:32:53;;;;;;;25.02;12.60;;;12.00;99.90;;;;;;4961819;28;20275;-95
2022/01/01 02:35:19;;;;;;;22.65;12.68;;;12.00;99.90;;;;;;4961365;28;20288;-95
2022/01/01 02:37:47;;;;;;;21.50;13.25;;;12.00;99.90;;;;;;4947021;28;20280;-95
2022/01/01 02:40:13;;;;;;;28.05;13.57;;;12.00;99.90;;;;;;4942273;29;20272;-94
2022/01/01 02:42:42;;;;;;;24.38;12.35;;;12.00;99.90;;;;;;4942472;29;20194;-93
2022/01/01 02:45:10;;;;;;;20.15;12.15;;;12.00;99.90;;;;;;4942098;29;20197;-95
2022/01/01 02:47:37;;;;;;;25.58;13.70;;;12.00;99.90;;;;;;4942295;29;20243;-94
2022/01/01 02:50:03;;;;;;;19.73;12.13;;;12.10;99.90;;;;;;4941966;29;20676;-94
2022/01/01 02:52:29;;;;;;;27.52;13.05;;;12.00;99.90;;;;;;4942033;29;20280;-94
2022/01/01 02:54:55;;;;;;;21.95;12.63;;;12.10;99.90;;;;;;4942104;29;20272;-93
2022/01/01 02:57:23;;;;;;;23.58;11.90;;;12.00;99.90;;;;;;4941960;29;20208;-94
2022/01/01 03:02:24;;;;;;;25.83;12.55;;;12.10;99.90;;;;;;5185758;23;20236;-94
2022/01/01 03:04:50;;;;;;;21.90;12.05;;;12.20;99.90;;;;;;4941764;29;20192;-93
2022/01/01 03:07:16;;;;;;;24.77;12.15;;;12.10;99.90;;;;;;4941224;29;20573;-93
2022/01/01 03:09:42;;;;;;;20.27;13.32;;;12.10;99.90;;;;;;4941668;29;20190;-94
2022/01/01 03:12:10;;;;;;;23.27;12.70;;;12.10;99.90;;;;;;4957466;29;20193;-94
2022/01/01 03:14:37;;;;;;;26.42;13.38;;;12.10;99.90;;;;;;4957718;29;20272;-94
2022/01/01 03:17:07;;;;;;;24.13;13.82;;;12.10;99.90;;;;;;4956939;29;20695;-95
2022/01/01 03:19:33;;;;;;;27.73;14.13;;;12.10;99.90;;;;;;4957204;29;20276;-94
2022/01/01 03:22:00;;;;;;;25.08;14.40;;;12.10;99.90;;;;;;4957371;29;20193;-94
2022/01/01 03:24:26;;;;;;;25.35;13.75;;;12.00;99.90;;;;;;4957939;29;20314;-93
2022/01/01 03:26:52;;;;;;;25.65;13.38;;;12.10;99.90;;;;;;4957156;29;20213;-94
2022/01/01 03:29:18;;;;;;;25.75;14.27;;;12.20;99.90;;;;;;4941099;29;20285;-94
2022/01/01 03:31:44;;;;;;;24.95;13.35;;;12.10;99.90;;;;;;4945334;29;20259;-94
2022/01/01 03:34:10;;;;;;;26.48;13.93;;;12.10;99.90;;;;;;4941351;29;20196;-94
2022/01/01 03:36:35;;;;;;;25.80;13.95;;;12.10;99.90;;;;;;4945709;28;20627;-94
2022/01/01 03:39:03;;;;;;;25.45;13.70;;;12.10;99.90;;;;;;4960212;28;20199;-94
2022/01/01 03:41:29;;;;;;;23.98;13.95;;;12.00;99.90;;;;;;4960125;28;20528;-94
2022/01/01 03:43:54;;;;;;;26.00;14.68;;;12.00;99.90;;;;;;4960371;28;20196;-94
2022/01/01 03:46:20;;;;;;;25.92;13.15;;;12.10;99.90;;;;;;4959904;28;20227;-93
2022/01/01 03:48:46;;;;;;;27.55;14.07;;;12.10;99.90;;;;;;4960005;28;20193;-93
2022/01/01 03:51:12;;;;;;;24.00;12.50;;;12.00;99.90;;;;;;4941488;29;20583;-94
2022/01/01 03:53:37;;;;;;;24.77;13.98;;;12.00;99.90;;;;;;4943811;28;20216;-94
2022/01/01 03:56:03;;;;;;;29.15;13.98;;;12.00;99.90;;;;;;4959856;28;20616;-94
2022/01/01 03:58:29;;;;;;;29.15;13.88;;;12.00;99.90;;;;;;4960432;28;20251;-94
2022/01/01 04:00:55;;;;;;;23.95;13.70;;;11.90;99.90;;;;;;4959288;28;20627;-94
2022/01/01 04:03:21;;;;;;;23.90;14.95;;;12.00;99.90;;;;;;4958934;28;20708;-94
2022/01/01 04:05:47;;;;;;;25.75;13.80;;;11.90;99.90;;;;;;4959710;28;20220;-94
2022/01/01 04:08:13;;;;;;;29.48;14.65;;;11.90;99.90;;;;;;4959695;28;20208;-94
2022/01/01 04:10:40;;;;;;;30.00;14.90;;;11.90;99.90;;;;;;4959589;28;20193;-94
2022/01/01 04:13:07;;;;;;;26.33;13.68;;;11.90;99.90;;;;;;4960079;28;20184;-94
2022/01/01 04:15:35;;;;;;;24.75;14.40;;;12.00;99.90;;;;;;4959702;28;20172;-94
2022/01/01 04:18:04;;;;;;;25.25;14.32;;;11.90;99.90;;;;;;4959505;28;20286;-94
2022/01/01 04:20:30;;;;;;;26.50;14.10;;;11.90;99.90;;;;;;4959487;28;20189;-94
2022/01/01 04:22:57;;;;;;;28.98;14.55;;;12.00;99.90;;;;;;4959484;28;20191;-94
2022/01/01 04:25:25;;;;;;;25.48;14.25;;;11.90;99.90;;;;;;4959345;28;20216;-95
2022/01/01 04:27:52;;;;;;;26.58;13.75;;;12.00;99.90;;;;;;4959434;28;20535;-94
2022/01/01 04:30:19;;;;;;;26.40;13.55;;;12.00;99.90;;;;;;4959434;28;20187;-93
2022/01/01 04:32:45;;;;;;;28.55;13.20;;;12.00;99.90;;;;;;4959337;28;20200;-95
2022/01/01 04:35:12;;;;;;;28.13;14.25;;;12.00;99.90;;;;;;4959651;28;20533;-94
2022/01/01 04:37:38;;;;;;;25.88;13.90;;;12.00;99.90;;;;;;4959341;28;20197;-94
2022/01/01 04:40:08;;;;;;;24.58;13.27;;;12.00;99.90;;;;;;4953055;29;20564;-93
2022/01/01 04:42:34;;;;;;;28.23;13.38;;;12.20;99.90;;;;;;4940045;29;20220;-94
2022/01/01 04:45:00;;;;;;;23.42;12.73;;;12.20;99.90;;;;;;4949601;29;20188;-93
2022/01/01 04:47:26;;;;;;;27.90;12.80;;;12.20;99.90;;;;;;4938928;29;20197;-94
2022/01/01 04:49:52;;;;;;;25.05;12.85;;;12.10;99.90;;;;;;4955960;29;20196;-94
2022/01/01 04:52:18;;;;;;;25.02;12.77;;;12.10;99.90;;;;;;4940291;29;20197;-94
2022/01/01 04:54:44;;;;;;;24.50;12.82;;;12.10;99.90;;;;;;4955918;29;20640;-95
2022/01/01 04:57:12;;;;;;;27.67;12.90;;;12.10;99.90;;;;;;4940182;29;20495;-94
2022/01/01 04:59:39;;;;;;;30.40;13.95;;;12.10;99.90;;;;;;4956316;29;20192;-94
2022/01/01 05:02:05;;;;;;;25.15;13.38;;;12.10;99.90;;;;;;4955854;29;20268;-94
2022/01/01 05:04:31;;;;;;;25.73;13.63;;;12.10;99.90;;;;;;4953252;28;20196;-94
2022/01/01 05:06:57;;;;;;;26.13;14.40;;;12.10;99.90;;;;;;4959547;28;20212;-93
2022/01/01 05:09:23;;;;;;;27.02;13.90;;;12.00;99.90;;;;;;4959369;28;20322;-93
2022/01/01 05:11:49;;;;;;;26.15;13.85;;;12.00;99.90;;;;;;4959368;28;20227;-93
2022/01/01 05:14:16;;;;;;;26.48;13.60;;;12.00;99.90;;;;;;4958840;28;20216;-94
2022/01/01 05:16:42;;;;;;;27.40;13.82;;;12.00;99.90;;;;;;4958644;28;20189;-94
2022/01/01 05:19:09;;;;;;;24.23;13.15;;;12.00;99.90;;;;;;4959077;28;20184;-94
2022/01/01 05:21:36;;;;;;;26.15;14.55;;;12.00;99.90;;;;;;4959568;28;20188;-94
2022/01/01 05:24:04;;;;;;;25.25;13.15;;;11.90;99.90;;;;;;4961043;28;20263;-93
2022/01/01 05:26:30;;;;;;;24.00;13.43;;;11.90;99.90;;;;;;4962739;28;20686;-94
2022/01/01 05:28:56;;;;;;;30.27;13.52;;;11.90;99.90;;;;;;4962849;28;20624;-94
2022/01/01 05:31:21;;;;;;;30.45;13.98;;;12.00;99.90;;;;;;4962673;28;20188;-94
2022/01/01 05:33:51;;;;;;;22.80;12.55;;;12.00;99.90;;;;;;4966576;28;20264;-94
2022/01/01 05:36:17;;;;;;;26.02;13.20;;;12.00;99.90;;;;;;4962393;28;20185;-94
2022/01/01 05:38:44;;;;;;;23.05;12.43;;;12.00;99.90;;;;;;4952512;29;20196;-94
2022/01/01 05:41:11;;;;;;;23.60;13.13;;;12.00;99.90;;;;;;4943144;29;20243;-93
2022/01/01 05:43:37;;;;;;;24.88;13.50;;;12.00;99.90;;;;;;4942934;29;20621;-94
2022/01/01 05:46:03;;;;;;;24.90;13.02;;;12.00;99.90;;;;;;4943073;29;20213;-93
2022/01/01 05:48:29;;;;;;;26.70;12.73;;;12.00;99.90;;;;;;4943309;29;20526;-95
2022/01/01 05:50:55;;;;;;;26.17;13.77;;;11.90;99.90;;;;;;4943537;29;20202;-94
2022/01/01 05:53:21;;;;;;;24.60;13.68;;;11.90;99.90;;;;;;4943425;29;20186;-94
2022/01/01 05:55:48;;;;;;;24.27;13.82;;;11.90;99.90;;;;;;4943069;29;20182;-94
2022/01/01 05:58:14;;;;;;;24.58;13.63;;;11.90;99.90;;;;;;4959890;29;20185;-94
2022/01/01 06:00:40;;;;;;;24.92;13.63;;;11.90;99.90;;;;;;4942964;29;20240;-94
2022/01/01 06:03:06;;;;;;;30.00;14.68;;;11.80;99.90;;;;;;4944724;28;20197;-93
2022/01/01 06:05:32;;;;;;;31.15;15.48;;;11.80;99.90;;;;;;4961997;28;20255;-94
2022/01/01 06:07:59;;;;;;;25.88;15.13;;;11.80;99.90;;;;;;4962359;28;20199;-93
2022/01/01 06:10:25;;;;;;;26.33;14.35;;;11.80;99.90;;;;;;4962372;28;20192;-95
2022/01/01 06:12:52;;;;;;;26.00;14.57;;;11.80;99.90;;;;;;4962141;28;20189;-94
2022/01/01 06:15:18;;;;;;;27.80;14.77;;;11.80;99.90;;;;;;4962012;28;20698;-93
2022/01/01 06:17:44;;;;;;;27.55;14.05;;;11.80;99.90;;;;;;4961906;28;20275;-93
2022/01/01 06:20:11;;;;;;;29.10;14.95;;;11.80;99.90;;;;;;4979119;28;20612;-93
2022/01/01 06:22:37;;;;;;;34.75;15.60;;;11.80;99.90;;;;;;4961596;28;20193;-94
2022/01/01 06:25:04;;;;;;;29.60;15.70;;;11.80;99.90;;;;;;4961846;28;20192;-94
2022/01/01 06:27:29;;;;;;;27.65;15.30;;;11.80;99.90;;;;;;4953723;29;20200;-94
2022/01/01 06:29:55;;;;;;;33.40;15.23;;;11.80;99.90;;;;;;4942390;29;20201;-94
2022/01/01 06:32:21;;;;;;;31.20;15.02;;;11.80;99.90;;;;;;4942240;29;20232;-94
2022/01/01 06:34:47;;;;;;;28.55;14.15;;;11.80;99.90;;;;;;4957089;28;20196;-94
2022/01/01 06:37:13;;;;;;;31.27;14.50;;;11.80;99.90;;;;;;4961470;28;20189;-94
2022/01/01 06:39:39;;;;;;;32.13;14.80;;;11.90;99.90;;;;;;4961651;28;20184;-93
2022/01/01 06:42:05;;;;;;;23.50;14.50;;;11.80;99.90;;;;;;4961335;28;20181;-94
2022/01/01 06:44:31;;;;;;;26.02;15.20;;;11.80;99.90;;;;;;4961235;28;20215;-94
2022/01/01 06:46:56;;;;;;;26.65;14.45;;;11.80;99.90;;;;;;4950617;28;20659;-95
2022/01/01 06:49:22;;;;;;;34.92;14.73;;;11.80;99.90;;;;;;4958297;29;20188;-94
2022/01/01 06:51:48;;;;;;;29.77;14.75;;;11.80;99.90;;;;;;4957866;29;20242;-93
2022/01/01 06:54:14;;;;;;;27.60;14.90;;;11.90;99.90;;;;;;4958299;29;20620;-95
2022/01/01 06:56:39;;;;;;;25.95;14.90;;;11.80;99.90;;;;;;4947606;28;20192;-94
2022/01/01 06:59:05;;;;;;;32.15;14.68;;;11.80;99.90;;;;;;4961002;28;20188;-94
2022/01/01 07:01:31;;;;;;;31.58;14.82;;;11.90;99.90;;;;;;4947168;29;20239;-94
2022/01/01 07:03:56;;;;;;;27.05;14.52;;;11.80;99.90;;;;;;4950247;28;20291;-94
2022/01/01 07:06:22;;;;;;;31.60;15.35;;;11.80;99.90;;;;;;4960886;28;20239;-94
2022/01/01 07:08:48;;;;;;;31.75;15.38;;;11.80;99.90;;;;;;4955714;29;20185;-93
2022/01/01 07:11:14;;;;;;;32.40;15.50;;;11.80;99.90;;;;;;4941584;29;20193;-93
2022/01/01 07:13:40;;;;;;;31.45;14.88;;;11.80;99.90;;;;;;4941644;29;20192;-93
2022/01/01 07:16:06;;;;;;;27.98;13.68;;;11.80;99.90;;;;;;4941447;29;20200;-93
2022/01/01 07:18:32;;;;;;;26.73;13.75;;;11.80;99.90;;;;;;4941530;29;20208;-94
2022/01/01 07:20:58;;;;;;;31.45;14.38;;;11.80;99.90;;;;;;4954036;28;20635;-94
2022/01/01 07:23:24;;;;;;;26.15;13.18;;;11.80;99.90;;;;;;4960542;28;20218;-94
2022/01/01 07:25:49;;;;;;;31.50;14.02;;;11.80;99.90;;;;;;4944361;29;20557;-93
2022/01/01 07:28:16;;;;;;;31.20;13.82;;;11.70;99.90;;;;;;4941435;29;20178;-94
2022/01/01 07:30:43;;;;;;;24.15;12.75;;;11.70;99.90;;;;;;4941614;29;20197;-93
2022/01/01 07:33:12;;;;;;;25.20;13.30;;;11.70;99.90;;;;;;4943045;28;20194;-94
2022/01/01 07:35:38;;;;;;;26.92;12.70;;;11.80;99.90;;;;;;4960480;28;20572;-94
2022/01/01 07:38:04;;;;;;;25.02;12.48;;;11.80;99.90;;;;;;4959586;28;20223;-93
2022/01/01 07:40:32;;;;;;;27.30;12.80;;;11.80;99.90;;;;;;4960268;28;20530;-94
2022/01/01 07:42:58;;;;;;;26.88;13.63;;;11.80;99.90;;;;;;4960042;28;20677;-94
2022/01/01 07:45:23;;;;;;;31.25;14.75;;;11.70;99.90;;;;;;4959486;28;20297;-95
2022/01/01 07:47:49;;;;;;;30.40;14.10;;;11.70;99.90;;;;;;4959470;28;20540;-94
2022/01/01 07:50:15;;;;;;;28.35;12.77;;;11.70;99.90;;;;;;4960340;28;20181;-94
2022/01/01 07:52:42;;;;;;;29.60;14.15;;;11.70;99.90;;;;;;4959840;28;20199;-93
2022/01/01 07:55:08;;;;;;;26.58;13.07;;;11.70;99.90;;;;;;4960293;28;20604;-94
2022/01/01 07:57:34;;;;;;;27.05;14.50;;;11.70;99.90;;;;;;4959827;28;20220;-93
2022/01/01 08:00:00;;;;;;;32.47;14.00;;;11.70;99.90;;;;;;4960138;28;20192;-94
2022/01/01 08:02:26;;;;;;;28.65;13.45;;;11.70;99.90;;;;;;4959391;28;20235;-94
2022/01/01 08:04:52;;;;;;;29.95;15.13;;;11.70;99.90;;;;;;4958709;28;20188;-94
2022/01/01 08:07:18;;;;;;;28.45;13.60;;;11.70;99.90;;;;;;4959414;28;20224;-94
2022/01/01 08:09:44;;;;;;;26.92;14.18;;;11.70;99.90;;;;;;4958446;28;20189;-95
2022/01/01 08:12:10;;;;;;;30.10;14.05;;;11.70;99.90;;;;;;4959546;28;20199;-95
2022/01/01 08:14:36;;;;;;;31.13;14.35;;;11.70;99.90;;;;;;4959912;28;20232;-96
2022/01/01 08:17:04;;;;;;;27.55;14.20;;;11.70;99.90;;;;;;4959330;28;20273;-94
2022/01/01 08:19:31;;;;;;;26.67;13.52;;;11.70;99.90;;;;;;4959501;28;20189;-95
2022/01/01 08:21:56;;;;;;;30.27;13.98;;;11.70;99.90;;;;;;4958758;28;20181;-95
2022/01/01 08:24:23;;;;;;;28.73;14.38;;;11.80;99.90;;;;;;4959015;28;20239;-95
2022/01/01 08:26:50;;;;;;;25.00;14.65;;;11.70;99.90;;;;;;4959628;28;20247;-95
2022/01/01 08:29:16;;;;;;;31.63;15.27;;;11.80;99.90;;;;;;4959397;28;20675;-94
2022/01/01 08:31:43;;;;;;;27.42;14.15;;;11.80;99.90;;;;;;4959216;28;20287;-94
2022/01/01 08:34:09;;;;;;;32.30;15.23;;;11.80;99.90;;;;;;4959051;28;20223;-95
2022/01/01 08:36:35;;;;;;;33.33;15.27;;;11.80;99.90;;;;;;4959183;28;20203;-95
2022/01/01 08:39:01;;;;;;;34.53;15.25;;;11.80;99.90;;;;;;4959596;28;20180;-95
2022/01/01 08:41:27;;;;;;;32.53;15.82;;;11.90;99.90;;;;;;4959462;28;20604;-95
2022/01/01 08:43:53;;;;;;;31.67;16.20;;;11.90;99.90;;;;;;4959040;28;20219;-95
2022/01/01 08:46:19;;;;;;;27.95;14.82;;;11.90;99.90;;;;;;4959150;28;20310;-95
2022/01/01 08:48:45;;;;;;;30.45;15.43;;;11.90;99.90;;;;;;4958666;28;20236;-95
2022/01/01 08:51:22;;;;;;;30.90;16.33;;;11.90;99.90;;;;;;4959461;28;20189;-96
2022/01/01 08:53:48;;;;;;;35.30;17.10;;;11.90;99.90;;;;;;4959673;28;20211;-94
2022/01/01 08:56:15;;;;;;;35.63;16.05;;;12.00;99.90;;;;;;4959302;28;20200;-93
2022/01/01 08:58:42;;;;;;;31.48;16.42;;;11.90;99.90;;;;;;4959020;28;20185;-94
2022/01/01 09:01:09;;;;;;;33.75;16.38;;;12.00;99.90;;;;;;4954186;29;20229;-95
2022/01/01 09:03:35;;;;;;;26.25;15.65;;;11.90;99.90;;;;;;4953009;28;20193;-94
2022/01/01 09:06:05;;;;;;;32.85;15.43;;;11.90;99.90;;;;;;4958139;28;20220;-95
2022/01/01 09:08:33;;;;;;;30.33;15.02;;;11.90;99.90;;;;;;4959156;28;20180;-95
2022/01/01 09:10:59;;;;;;;32.05;14.93;;;11.90;99.90;;;;;;4959153;28;20196;-95
2022/01/01 09:13:25;;;;;;;31.15;14.95;;;11.90;99.90;;;;;;4959090;28;20184;-96
2022/01/01 09:15:52;;;;;;;31.67;15.38;;;11.90;99.90;;;;;;4958658;28;20188;-95
2022/01/01 09:18:18;;;;;;;32.10;16.27;;;11.90;99.90;;;;;;4958628;28;20192;-96
2022/01/01 09:20:44;;;;;;;30.80;16.05;;;11.90;99.90;;;;;;4958985;28;20276;-95
2022/01/01 09:23:10;;;;;;;29.17;16.00;;;11.90;99.90;;;;;;4958380;28;20195;-95
2022/01/01 09:25:36;;;;;;;30.75;16.38;;;11.90;99.90;;;;;;4958909;28;20212;-95
2022/01/01 09:28:02;;;;;;;33.88;15.63;;;11.90;99.90;;;;;;4959064;28;20193;-95
2022/01/01 09:30:28;;;;;;;33.78;16.25;;;11.90;99.90;;;;;;4958360;28;20188;-95
2022/01/01 09:32:54;;;;;;;31.95;15.82;;;11.90;99.90;;;;;;4957600;28;20207;-95
2022/01/01 09:35:20;;;;;;;32.17;16.33;;;11.90;99.90;;;;;;4958220;28;20195;-95
2022/01/01 09:37:47;;;;;;;34.13;16.50;;;11.90;99.90;;;;;;4957190;28;20268;-94
2022/01/01 09:40:13;;;;;;;31.88;16.60;;;11.90;99.90;;;;;;4958157;28;20180;-96
2022/01/01 09:42:40;;;;;;;29.67;16.35;;;12.00;99.90;;;;;;4955887;28;20185;-95
2022/01/01 09:45:07;;;;;;;32.90;17.38;;;12.00;99.90;;;;;;4956954;28;20220;-96
2022/01/01 09:47:33;;;;;;;34.88;17.50;;;12.00;99.90;;;;;;4954602;29;20320;-95
2022/01/01 09:49:59;;;;;;;36.15;17.98;;;12.00;99.90;;;;;;4939687;29;20559;-96
2022/01/01 09:52:25;;;;;;;33.25;17.20;;;12.00;99.90;;;;;;4939465;29;20185;-96
2022/01/01 09:54:51;;;;;;;35.38;18.75;;;11.90;99.90;;;;;;4939390;29;20186;-96
2022/01/01 09:57:18;;;;;;;37.05;17.92;;;12.00;99.90;;;;;;4939175;29;20652;-95
2022/01/01 09:59:43;;;;;;;37.42;19.02;;;12.00;99.90;;;;;;4939433;29;20277;-96
2022/01/01 10:02:10;;;;;;;34.35;18.15;;;12.10;99.90;;;;;;4955893;28;20256;-94
2022/01/01 10:04:42;;;;;;;40.83;19.58;;;12.10;99.90;;;;;;4958231;28;20189;-96
2022/01/01 10:07:08;;;;;;;32.63;18.10;;;12.10;99.90;;;;;;4958076;28;20224;-95
2022/01/01 10:09:39;;;;;;;37.88;18.08;;;12.20;99.90;;;;;;4960347;28;20184;-96
2022/01/01 10:12:06;;;;;;;32.80;17.90;;;12.10;99.90;;;;;;4965018;28;20317;-96
2022/01/01 10:14:48;;;;;;;35.78;18.58;;;12.20;99.90;;;;;;4961333;28;20283;-96
2022/01/01 10:17:22;;;;;;;29.88;18.40;;;12.20;99.90;;;;;;4961965;28;20247;-95
2022/01/01 10:19:51;;;;;;;34.63;17.73;;;12.20;99.90;;;;;;4959511;28;20690;-95
2022/01/01 10:22:21;;;;;;;31.45;17.98;;;12.20;99.90;;;;;;4961507;28;20185;-95
2022/01/01 10:27:47;;;;;;;32.70;16.52;;;12.20;99.90;;;;;;4975875;28;20270;-95
2022/01/01 10:30:43;;;;;;;27.90;15.75;;;12.30;99.90;;;;;;4959297;28;20276;-95
2022/01/01 10:33:11;;;;;;;29.08;15.77;;;12.30;99.90;;;;;;4958746;28;20603;-95
2022/01/01 10:35:39;;;;;;;31.73;15.45;;;12.30;99.90;;;;;;4961332;28;20243;-96
2022/01/01 10:38:18;;;;;;;29.73;15.45;;;12.40;99.90;;;;;;4945687;28;20180;-95
2022/01/01 10:40:44;;;;;;;26.50;15.13;;;12.40;99.90;;;;;;4962117;28;20188;-96
2022/01/01 10:43:11;;;;;;;26.80;13.88;;;12.50;99.90;;;;;;4961308;28;20192;-94
2022/01/01 10:45:45;;;;;;;28.73;14.57;;;12.50;99.90;;;;;;4962270;28;20212;-95
2022/01/01 10:48:28;;;;;;;27.40;13.60;;;12.60;99.90;;;;;;4948527;28;20181;-96
2022/01/01 10:50:56;;;;;;;24.67;14.18;;;12.70;99.90;;;;;;4960816;28;20195;-96
2022/01/01 10:53:27;;;;;;;23.60;13.10;;;12.70;99.90;;;;;;4963606;28;20195;-95
2022/01/01 10:55:58;;;;;;;19.80;12.07;;;12.70;99.90;;;;;;4959701;28;20283;-95
2022/01/01 10:58:35;;;;;;;26.58;12.85;;;12.70;99.90;;;;;;4961596;28;20206;-95
2022/01/01 11:01:08;;;;;;;31.98;13.48;;;12.70;99.90;;;;;;4942191;29;20248;-95
2022/01/01 11:03:45;;;;;;;27.13;12.65;;;12.80;99.90;;;;;;4945832;28;20192;-95
2022/01/01 11:06:13;;;;;;;26.15;13.27;;;12.80;99.90;;;;;;4960701;28;20303;-96
2022/01/01 11:08:41;;;;;;;27.00;12.57;;;12.80;99.90;;;;;;4960821;28;20192;-95
2022/01/01 11:11:10;;;;;;;25.23;13.00;;;12.90;99.90;;;;;;4961173;28;20192;-95
2022/01/01 11:13:36;;;;;;;27.60;13.40;;;12.90;99.90;;;;;;4961082;28;20200;-96
2022/01/01 11:16:04;;;;;;;27.17;14.65;;;13.00;99.90;;;;;;4961001;28;20216;-96
2022/01/01 11:18:32;;;;;;;25.98;13.50;;;12.90;99.90;;;;;;4960644;28;20197;-95
2022/01/01 11:20:59;;;;;;;24.50;14.73;;;12.90;99.90;;;;;;4960800;28;20181;-95
2022/01/01 11:23:26;;;;;;;29.00;14.75;;;13.00;99.90;;;;;;4960936;28;20280;-96
2022/01/01 11:25:54;;;;;;;24.90;14.00;;;13.00;99.90;;;;;;4959822;28;20216;-95
2022/01/01 11:28:20;;;;;;;27.50;14.85;;;13.00;99.90;;;;;;4959193;28;20581;-95
2022/01/01 11:31:03;;;;;;;32.88;16.42;;;13.00;99.90;;;;;;4960735;28;20185;-94
2022/01/01 11:33:39;;;;;;;37.88;16.20;;;13.00;99.90;;;;;;4960484;28;20544;-95
2022/01/01 11:36:06;;;;;;;25.75;15.80;;;13.00;99.90;;;;;;4960533;28;20193;-95
2022/01/01 11:38:35;;;;;;;23.83;14.68;;;13.00;99.90;;;;;;4959735;28;20189;-96
2022/01/01 11:41:09;;;;;;;26.80;14.98;;;13.00;99.90;;;;;;4960151;28;20196;-95
2022/01/01 11:43:39;;;;;;;29.65;15.55;;;13.00;99.90;;;;;;4960088;28;20180;-95
2022/01/01 11:46:33;;;;;;;28.13;15.07;;;13.00;99.90;;;;;;4958941;28;20311;-93
2022/01/01 11:49:00;;;;;;;25.85;14.80;;;13.00;99.90;;;;;;4958016;28;20192;-95
2022/01/01 11:51:35;;;;;;;26.58;14.40;;;13.00;99.90;;;;;;4960002;28;20204;-95
2022/01/01 11:54:07;;;;;;;23.52;14.35;;;13.00;99.90;;;;;;4960395;28;20175;-95
2022/01/01 11:56:51;;;;;;;28.42;14.63;;;13.00;99.90;;;;;;4959893;28;20192;-94
2022/01/01 11:59:36;;;;;;;24.75;14.32;;;13.00;99.90;;;;;;4960004;28;20184;-95
2022/01/01 12:02:20;;;;;;;22.80;12.98;;;13.00;99.90;;;;;;4959696;28;20298;-94
2022/01/01 12:04:48;;;;;;;28.15;13.88;;;13.10;99.90;;;;;;4959442;28;20196;-95
2022/01/01 12:07:29;;;;;;;23.67;13.05;;;13.10;99.90;;;;;;4958698;28;20602;-95
2022/01/01 12:09:58;;;;;;;26.70;13.73;;;13.10;99.90;;;;;;4959884;28;20259;-94
2022/01/01 12:12:50;;;;;;;28.08;12.55;;;13.10;99.90;;;;;;4959507;28;20620;-95
2022/01/01 12:15:25;;;;;;;20.58;11.40;;;13.10;99.90;;;;;;4959833;28;20191;-95
2022/01/01 12:18:05;;;;;;;23.42;11.43;;;13.20;99.90;;;;;;4958105;28;20192;-95
2022/01/01 12:21:02;;;;;;;17.65;11.00;;;13.20;99.90;;;;;;4956203;29;20193;-95
2022/01/01 12:23:31;;;;;;;21.52;10.48;;;13.10;99.90;;;;;;4940396;29;20200;-94
2022/01/01 12:25:58;;;;;;;22.83;11.20;;;13.20;99.90;;;;;;4940021;29;20284;-96
2022/01/01 12:28:31;;;;;;;21.23;9.85;;;13.20;99.90;;;;;;4953910;28;20236;-94
2022/01/01 12:31:24;;;;;;;22.25;9.90;;;13.10;99.90;;;;;;4947598;28;20200;-95
2022/01/01 12:33:59;;;;;;;17.23;9.10;;;13.20;99.90;;;;;;4953663;28;20219;-93
2022/01/01 12:36:31;;;;;;;19.30;9.45;;;13.10;99.90;;;;;;4959125;28;20198;-95
2022/01/01 12:39:07;;;;;;;18.70;8.48;;;13.10;99.90;;;;;;4956579;28;20187;-94
2022/01/01 12:41:41;;;;;;;16.65;8.43;;;13.10;99.90;;;;;;4958775;28;20180;-95